Time;durP1;ratioP1;P1;durP2;ratioP2;P2;SDS_P1;SDS_P2;PMS_P1;PMS_P2;Temp;Humidity;BMP_temperature;BMP_pressure;BME280_temperature;BME280_humidity;BME280_pressure;Samples;Min_cycle;Max_cycle;Signal;HPM_P1;HPM_P2
2024/01/14 00:00:09;;;;;;;30.17;16.00;;;5.40;99.90;;;;;;4892620;29;20447;-65
2024/01/14 00:02:36;;;;;;;31.45;17.40;;;5.40;99.90;;;;;;4893552;29;20199;-65
2024/01/14 00:05:02;;;;;;;29.92;16.98;;;5.40;99.90;;;;;;4885376;29;20184;-65
2024/01/14 00:07:27;;;;;;;27.42;17.00;;;5.50;99.90;;;;;;4890244;29;20183;-65
2024/01/14 00:09:53;;;;;;;25.30;16.23;;;5.60;99.90;;;;;;4887832;29;20728;-65
2024/01/14 00:12:19;;;;;;;26.43;15.73;;;5.50;99.90;;;;;;4895589;29;20392;-65
2024/01/14 00:14:45;;;;;;;25.80;16.60;;;5.60;99.90;;;;;;4892128;29;20583;-65
2024/01/14 00:17:11;;;;;;;28.50;15.77;;;5.70;99.90;;;;;;4890988;29;20654;-65
2024/01/14 00:19:37;;;;;;;26.57;14.40;;;5.70;99.90;;;;;;4872768;29;20191;-65
2024/01/14 00:22:02;;;;;;;26.80;16.67;;;5.60;99.90;;;;;;4888817;29;20986;-65
2024/01/14 00:24:28;;;;;;;24.67;14.93;;;5.60;99.90;;;;;;4875860;29;20192;-65
2024/01/14 00:26:54;;;;;;;27.37;15.60;;;5.60;99.90;;;;;;4880200;29;20429;-65
2024/01/14 00:29:20;;;;;;;26.10;14.57;;;5.60;99.90;;;;;;4895996;29;20733;-65
2024/01/14 00:31:46;;;;;;;30.80;16.07;;;5.60;99.90;;;;;;4892347;29;20468;-65
2024/01/14 00:34:12;;;;;;;28.90;16.37;;;5.60;99.90;;;;;;4892353;29;20227;-65
2024/01/14 00:36:39;;;;;;;27.97;15.70;;;5.70;99.90;;;;;;4896922;29;20946;-65
2024/01/14 00:39:05;;;;;;;21.73;15.05;;;5.70;99.90;;;;;;4869822;29;20446;-65
2024/01/14 00:41:31;;;;;;;28.33;16.40;;;5.60;99.90;;;;;;4894720;29;20636;-65
2024/01/14 00:43:56;;;;;;;28.97;16.20;;;5.60;99.90;;;;;;4893710;29;20532;-65
2024/01/14 00:46:23;;;;;;;25.67;15.50;;;5.60;99.90;;;;;;4895495;29;20188;-65
2024/01/14 00:48:49;;;;;;;31.27;15.63;;;5.60;99.90;;;;;;4896671;29;20189;-65
2024/01/14 00:51:15;;;;;;;23.20;15.02;;;5.60;99.90;;;;;;4896937;29;20183;-65
2024/01/14 00:53:41;;;;;;;28.43;16.30;;;5.60;99.90;;;;;;4896903;29;20185;-66
2024/01/14 00:56:07;;;;;;;27.60;17.00;;;5.70;99.90;;;;;;4864372;29;20829;-65
2024/01/14 00:58:32;;;;;;;27.70;14.37;;;5.60;99.90;;;;;;4877986;29;20227;-66
2024/01/14 01:00:58;;;;;;;25.93;15.70;;;5.60;99.90;;;;;;4881926;29;20197;-65
2024/01/14 01:03:24;;;;;;;25.23;14.80;;;5.60;99.90;;;;;;4891556;29;20291;-66
2024/01/14 01:05:50;;;;;;;24.90;14.80;;;5.50;99.90;;;;;;4890767;29;20236;-66
2024/01/14 01:08:15;;;;;;;29.17;16.40;;;5.60;99.90;;;;;;4883424;29;20235;-66
2024/01/14 01:10:41;;;;;;;24.93;14.00;;;5.50;99.90;;;;;;4891237;29;20217;-66
2024/01/14 01:13:07;;;;;;;26.33;15.57;;;5.70;99.90;;;;;;4869024;29;20641;-66
2024/01/14 01:15:33;;;;;;;25.00;15.20;;;5.60;99.90;;;;;;4886773;29;20184;-66
2024/01/14 01:17:58;;;;;;;21.43;14.27;;;5.70;99.90;;;;;;4895514;29;20203;-66
2024/01/14 01:20:24;;;;;;;25.80;14.97;;;5.80;99.90;;;;;;4879357;29;20188;-65
2024/01/14 01:22:51;;;;;;;25.53;14.43;;;5.60;99.90;;;;;;4886927;29;20209;-65
2024/01/14 01:25:16;;;;;;;23.58;13.93;;;5.70;99.90;;;;;;4880046;29;20181;-66
2024/01/14 01:27:42;;;;;;;22.00;12.70;;;5.70;99.90;;;;;;4890315;29;20196;-65
2024/01/14 01:30:08;;;;;;;23.20;14.63;;;5.70;99.90;;;;;;4887509;29;20189;-65
2024/01/14 01:32:34;;;;;;;26.17;15.77;;;5.70;99.90;;;;;;4886018;29;20184;-65
2024/01/14 01:35:00;;;;;;;22.17;14.33;;;5.70;99.90;;;;;;4880197;29;20270;-65
2024/01/14 01:37:26;;;;;;;24.93;15.17;;;5.70;99.90;;;;;;4894928;29;20610;-65
2024/01/14 01:39:51;;;;;;;25.17;15.67;;;5.70;99.90;;;;;;4876589;29;20207;-66
2024/01/14 01:42:17;;;;;;;24.70;14.03;;;5.80;99.90;;;;;;4895507;29;20254;-65
2024/01/14 01:44:43;;;;;;;23.53;14.93;;;5.80;99.90;;;;;;4889231;29;20200;-65
2024/01/14 01:47:09;;;;;;;27.40;15.37;;;5.70;99.90;;;;;;4892588;29;20183;-66
2024/01/14 01:49:35;;;;;;;24.50;13.83;;;5.70;99.90;;;;;;4879684;29;20189;-65
2024/01/14 01:52:04;;;;;;;21.53;14.17;;;5.80;99.90;;;;;;4896825;29;20827;-65
2024/01/14 01:54:32;;;;;;;23.77;14.93;;;5.80;99.90;;;;;;4893537;29;20445;-65
2024/01/14 01:56:58;;;;;;;25.20;14.73;;;5.80;99.90;;;;;;4868095;29;20621;-65
2024/01/14 01:59:25;;;;;;;22.77;13.83;;;5.80;99.90;;;;;;4879370;29;20881;-65
2024/01/14 02:01:51;;;;;;;25.20;13.93;;;5.80;99.90;;;;;;4873390;29;21039;-65
2024/01/14 02:04:18;;;;;;;22.90;13.67;;;5.80;99.90;;;;;;4894261;29;20196;-65
2024/01/14 02:06:44;;;;;;;20.00;13.00;;;5.90;99.90;;;;;;4898808;29;20400;-65
2024/01/14 02:09:10;;;;;;;18.13;12.20;;;5.80;99.90;;;;;;4890939;29;20439;-65
2024/01/14 02:11:37;;;;;;;22.77;13.23;;;5.80;99.90;;;;;;4894248;29;20259;-66
2024/01/14 02:14:03;;;;;;;22.93;14.33;;;5.80;99.90;;;;;;4896761;29;20430;-65
2024/01/14 02:16:29;;;;;;;21.30;13.83;;;5.90;99.90;;;;;;4898426;29;20956;-65
2024/01/14 02:18:55;;;;;;;20.47;12.50;;;5.80;99.90;;;;;;4895394;29;20529;-65
2024/01/14 02:21:25;;;;;;;19.40;12.80;;;5.80;99.90;;;;;;4896298;29;20477;-65
2024/01/14 02:24:03;;;;;;;19.97;12.20;;;5.70;99.90;;;;;;4899029;29;20483;-65
2024/01/14 02:26:29;;;;;;;19.77;11.97;;;5.80;99.90;;;;;;4899514;29;20520;-65
2024/01/14 02:28:55;;;;;;;19.10;11.40;;;5.80;99.90;;;;;;4884182;29;21002;-65
2024/01/14 02:31:20;;;;;;;22.33;13.43;;;5.80;99.90;;;;;;4880305;29;20184;-64
2024/01/14 02:33:46;;;;;;;17.30;12.23;;;5.80;99.90;;;;;;4897541;29;20192;-65
2024/01/14 02:36:12;;;;;;;20.30;12.37;;;5.80;99.90;;;;;;4885794;29;20663;-65
2024/01/14 02:38:38;;;;;;;21.20;13.80;;;5.80;99.90;;;;;;4895679;29;20188;-66
2024/01/14 02:41:04;;;;;;;19.00;13.40;;;5.80;99.90;;;;;;4894753;29;20195;-65
2024/01/14 02:43:30;;;;;;;19.50;13.23;;;5.90;99.90;;;;;;4899115;29;20922;-65
2024/01/14 02:45:55;;;;;;;18.37;12.53;;;5.90;99.90;;;;;;4882224;29;20486;-65
2024/01/14 02:48:21;;;;;;;14.70;11.50;;;5.80;99.90;;;;;;4882457;29;20267;-66
2024/01/14 02:50:47;;;;;;;19.13;12.43;;;5.70;99.90;;;;;;4873102;29;20193;-65
2024/01/14 02:53:13;;;;;;;17.90;12.70;;;5.80;99.90;;;;;;4867107;29;20196;-65
2024/01/14 02:55:39;;;;;;;20.63;11.37;;;5.80;99.90;;;;;;4888594;29;20532;-66
2024/01/14 02:58:05;;;;;;;19.83;12.40;;;5.90;99.90;;;;;;4888491;29;20180;-66
2024/01/14 03:00:30;;;;;;;16.90;11.53;;;5.90;99.90;;;;;;4877462;29;20192;-65
2024/01/14 03:02:56;;;;;;;19.77;11.17;;;5.90;99.90;;;;;;4874122;29;20920;-65
2024/01/14 03:05:22;;;;;;;18.40;12.13;;;5.90;99.90;;;;;;4880770;29;20206;-65
2024/01/14 03:07:48;;;;;;;15.57;11.10;;;5.90;99.90;;;;;;4896252;29;20173;-65
2024/01/14 03:10:13;;;;;;;13.50;10.53;;;5.90;99.90;;;;;;4896665;29;20197;-65
2024/01/14 03:12:40;;;;;;;16.70;11.00;;;5.90;99.90;;;;;;4897788;29;20193;-65
2024/01/14 03:15:06;;;;;;;19.03;11.50;;;5.90;99.90;;;;;;4899659;29;20183;-65
2024/01/14 03:17:32;;;;;;;17.08;10.70;;;5.90;99.90;;;;;;4896986;29;20502;-65
2024/01/14 03:19:57;;;;;;;15.43;10.63;;;5.90;99.90;;;;;;4897860;29;20272;-64
2024/01/14 03:22:23;;;;;;;13.00;9.70;;;5.90;99.90;;;;;;4895825;29;20246;-64
2024/01/14 03:24:49;;;;;;;13.50;10.60;;;5.80;99.90;;;;;;4897861;29;20196;-65
2024/01/14 03:27:15;;;;;;;15.73;10.60;;;5.90;99.90;;;;;;4898997;29;20192;-64
2024/01/14 03:29:40;;;;;;;14.57;9.97;;;5.90;99.90;;;;;;4882382;29;20224;-66
2024/01/14 03:32:06;;;;;;;15.80;10.80;;;5.90;99.90;;;;;;4898377;29;20180;-66
2024/01/14 03:34:32;;;;;;;14.67;10.60;;;5.90;99.90;;;;;;4881506;29;20641;-66
2024/01/14 03:36:57;;;;;;;15.50;10.47;;;5.90;99.90;;;;;;4898434;29;20633;-66
2024/01/14 03:39:23;;;;;;;14.60;10.43;;;5.90;99.90;;;;;;4895606;29;20180;-66
2024/01/14 03:41:49;;;;;;;16.93;10.90;;;5.90;99.90;;;;;;4880490;29;20757;-65
2024/01/14 03:44:14;;;;;;;16.37;11.27;;;5.90;99.90;;;;;;4898370;29;20554;-66
2024/01/14 03:46:40;;;;;;;15.40;10.60;;;5.80;99.90;;;;;;4891506;29;20192;-67
2024/01/14 03:49:06;;;;;;;17.60;12.57;;;5.70;99.90;;;;;;4895954;29;20188;-66
2024/01/14 03:51:32;;;;;;;15.43;10.97;;;5.70;99.90;;;;;;4897969;29;20278;-66
2024/01/14 03:53:58;;;;;;;16.30;11.63;;;5.70;99.90;;;;;;4891116;29;20528;-66
2024/01/14 03:56:24;;;;;;;19.27;11.50;;;5.70;99.90;;;;;;4896051;29;20488;-65
2024/01/14 03:58:49;;;;;;;17.90;11.27;;;5.80;99.90;;;;;;4880849;29;20429;-66
2024/01/14 04:01:17;;;;;;;14.87;11.00;;;5.80;99.90;;;;;;4882082;29;20181;-66
2024/01/14 04:03:43;;;;;;;16.35;11.60;;;5.80;99.90;;;;;;4896234;29;20238;-66
2024/01/14 04:06:09;;;;;;;17.60;11.90;;;5.80;99.90;;;;;;4897705;29;20592;-66
2024/01/14 04:08:35;;;;;;;14.53;11.07;;;5.80;99.90;;;;;;4891442;29;20436;-66
2024/01/14 04:11:01;;;;;;;15.43;10.60;;;5.90;99.90;;;;;;4897431;29;20436;-66
2024/01/14 04:13:26;;;;;;;15.43;10.63;;;5.90;99.90;;;;;;4880521;29;20189;-66
2024/01/14 04:15:56;;;;;;;18.87;11.70;;;5.90;99.90;;;;;;4880220;29;20507;-66
2024/01/14 04:18:22;;;;;;;20.00;13.07;;;5.90;99.90;;;;;;4895216;29;20184;-65
2024/01/14 04:20:48;;;;;;;16.73;11.83;;;6.00;99.90;;;;;;4873599;29;20432;-66
2024/01/14 04:23:13;;;;;;;16.33;11.00;;;5.90;99.90;;;;;;4883463;29;21028;-66
2024/01/14 04:25:39;;;;;;;16.10;11.60;;;6.00;99.90;;;;;;4871935;29;20654;-66
2024/01/14 04:28:05;;;;;;;15.20;11.07;;;6.00;99.90;;;;;;4876091;29;20624;-66
2024/01/14 04:30:31;;;;;;;15.27;10.80;;;6.00;99.90;;;;;;4865881;29;20497;-65
2024/01/14 04:32:57;;;;;;;14.70;11.40;;;6.00;99.90;;;;;;4888612;29;20242;-66
2024/01/14 04:35:23;;;;;;;17.70;11.37;;;5.90;99.90;;;;;;4897501;29;20176;-66
2024/01/14 04:37:49;;;;;;;17.70;12.03;;;6.00;99.90;;;;;;4896785;29;20909;-66
2024/01/14 04:40:14;;;;;;;15.80;11.40;;;6.00;99.90;;;;;;4893284;29;20188;-66
2024/01/14 04:42:40;;;;;;;13.10;10.70;;;6.00;99.90;;;;;;4896839;29;20247;-66
2024/01/14 04:45:07;;;;;;;14.93;10.10;;;6.00;99.90;;;;;;4896784;29;20194;-66
2024/01/14 04:47:33;;;;;;;14.83;10.40;;;6.10;99.90;;;;;;4897243;29;20538;-66
2024/01/14 04:49:59;;;;;;;15.57;11.00;;;6.10;99.90;;;;;;4897264;29;20437;-66
2024/01/14 04:52:24;;;;;;;14.07;10.10;;;6.10;99.90;;;;;;4895975;29;20640;-66
2024/01/14 04:54:50;;;;;;;13.07;10.27;;;6.10;99.90;;;;;;4895149;29;20437;-66
2024/01/14 04:57:16;;;;;;;13.17;9.70;;;6.00;99.90;;;;;;4897080;29;20234;-66
2024/01/14 04:59:42;;;;;;;14.20;10.63;;;6.10;99.90;;;;;;4895680;29;20192;-67
2024/01/14 05:02:07;;;;;;;12.87;8.73;;;6.00;99.90;;;;;;4881859;29;20536;-66
2024/01/14 05:04:33;;;;;;;13.83;10.47;;;6.00;99.90;;;;;;4897109;29;20181;-66
2024/01/14 05:06:59;;;;;;;14.47;10.60;;;5.90;99.90;;;;;;4894896;29;20219;-66
2024/01/14 05:09:25;;;;;;;18.17;10.27;;;5.90;99.90;;;;;;4896235;29;20227;-66
2024/01/14 05:11:51;;;;;;;15.17;10.50;;;6.00;99.90;;;;;;4883573;29;20440;-66
2024/01/14 05:14:17;;;;;;;17.10;10.47;;;6.00;99.90;;;;;;4895266;29;20410;-66
2024/01/14 05:16:43;;;;;;;14.87;10.77;;;6.00;99.90;;;;;;4892552;29;20430;-66
2024/01/14 05:19:09;;;;;;;22.60;12.50;;;6.10;99.90;;;;;;4879133;29;20188;-66
2024/01/14 05:21:35;;;;;;;20.23;12.70;;;5.90;99.90;;;;;;4889408;29;20398;-66
2024/01/14 05:24:00;;;;;;;22.70;12.83;;;5.90;99.90;;;;;;4895268;29;20302;-66
2024/01/14 05:26:26;;;;;;;21.70;12.57;;;5.90;99.90;;;;;;4897732;29;20402;-66
2024/01/14 05:28:52;;;;;;;23.13;14.80;;;5.80;99.90;;;;;;4895467;29;20429;-66
2024/01/14 05:31:18;;;;;;;26.90;15.73;;;5.80;99.90;;;;;;4896740;29;20183;-66
2024/01/14 05:33:43;;;;;;;22.83;14.50;;;5.90;99.90;;;;;;4880837;29;20283;-65
2024/01/14 05:36:09;;;;;;;26.70;15.47;;;5.90;99.90;;;;;;4892883;29;20202;-66
2024/01/14 05:38:35;;;;;;;30.03;16.00;;;5.90;99.90;;;;;;4876169;29;20459;-66
2024/01/14 05:41:01;;;;;;;25.03;15.97;;;5.90;99.90;;;;;;4873885;29;20213;-66
2024/01/14 05:43:26;;;;;;;28.23;16.90;;;6.00;99.90;;;;;;4896832;29;20672;-66
2024/01/14 05:45:52;;;;;;;29.80;16.73;;;5.90;99.90;;;;;;4891256;29;20238;-66
2024/01/14 05:48:19;;;;;;;30.13;16.03;;;6.00;99.90;;;;;;4896810;29;20446;-66
2024/01/14 05:50:45;;;;;;;25.08;14.85;;;5.90;99.90;;;;;;4895582;29;20187;-67
2024/01/14 05:53:11;;;;;;;29.50;17.30;;;5.90;99.90;;;;;;4896196;29;20195;-66
2024/01/14 05:55:36;;;;;;;26.57;15.60;;;5.90;99.90;;;;;;4896589;29;20209;-65
2024/01/14 05:58:02;;;;;;;24.30;15.00;;;5.90;99.90;;;;;;4879248;29;20176;-66
2024/01/14 06:00:28;;;;;;;27.20;15.63;;;5.80;99.90;;;;;;4884058;29;20192;-66
2024/01/14 06:02:53;;;;;;;25.77;15.73;;;5.70;99.90;;;;;;4884166;29;20460;-66
2024/01/14 06:05:19;;;;;;;24.50;14.40;;;5.70;99.90;;;;;;4897048;29;20185;-65
2024/01/14 06:07:45;;;;;;;26.20;14.97;;;5.70;99.90;;;;;;4895695;29;20600;-65
2024/01/14 06:10:11;;;;;;;25.17;15.07;;;5.80;99.90;;;;;;4884235;29;20192;-65
2024/01/14 06:12:37;;;;;;;29.07;16.00;;;5.80;99.90;;;;;;4871295;29;20510;-65
2024/01/14 06:15:03;;;;;;;27.87;16.17;;;5.70;99.90;;;;;;4878016;29;20181;-65
2024/01/14 06:17:28;;;;;;;32.67;15.93;;;5.70;99.90;;;;;;4892580;29;20641;-66
2024/01/14 06:19:54;;;;;;;30.53;17.00;;;5.70;99.90;;;;;;4895907;29;20197;-66
2024/01/14 06:22:20;;;;;;;30.90;17.20;;;5.70;99.90;;;;;;4880326;29;20204;-66
2024/01/14 06:24:46;;;;;;;32.87;16.20;;;5.70;99.90;;;;;;4895042;29;20274;-65
2024/01/14 06:27:12;;;;;;;32.72;16.88;;;5.70;99.90;;;;;;4896161;29;20203;-65
2024/01/14 06:29:39;;;;;;;29.10;16.70;;;5.70;99.90;;;;;;4897133;29;20180;-65
2024/01/14 06:32:05;;;;;;;25.88;15.23;;;5.60;99.90;;;;;;4890910;29;20579;-65
2024/01/14 06:34:30;;;;;;;27.17;15.40;;;5.70;99.90;;;;;;4892367;29;20243;-65
2024/01/14 06:36:56;;;;;;;26.83;16.90;;;5.70;99.90;;;;;;4895649;29;20909;-66
2024/01/14 06:39:22;;;;;;;29.20;16.93;;;5.70;99.90;;;;;;4893129;29;20425;-65
2024/01/14 06:41:48;;;;;;;28.43;17.63;;;5.70;99.90;;;;;;4894184;29;20660;-66
2024/01/14 06:44:14;;;;;;;27.70;16.95;;;5.70;99.90;;;;;;4899876;29;20237;-65
2024/01/14 06:46:43;;;;;;;30.17;16.30;;;5.70;99.90;;;;;;4882807;29;20191;-65
2024/01/14 06:49:09;;;;;;;24.13;15.70;;;5.70;99.90;;;;;;4895652;29;20188;-65
2024/01/14 06:51:53;;;;;;;27.97;16.17;;;5.80;99.90;;;;;;4865049;29;20598;-66
2024/01/14 06:54:19;;;;;;;26.73;15.23;;;5.80;99.90;;;;;;4881595;29;20435;-68
2024/01/14 06:56:45;;;;;;;20.63;14.77;;;5.80;99.90;;;;;;4888719;29;20250;-65
2024/01/14 06:59:21;;;;;;;28.90;16.85;;;5.80;99.90;;;;;;4893651;29;20189;-64
2024/01/14 07:01:48;;;;;;;28.53;15.57;;;5.80;99.90;;;;;;4865584;29;20553;-63
2024/01/14 07:04:14;;;;;;;25.83;15.80;;;5.80;99.90;;;;;;4897946;29;20439;-64
2024/01/14 07:06:40;;;;;;;26.07;15.37;;;5.80;99.90;;;;;;4882809;29;20400;-64
2024/01/14 07:09:08;;;;;;;22.83;14.40;;;5.80;99.90;;;;;;4895432;29;20435;-64
2024/01/14 07:11:35;;;;;;;24.23;14.30;;;5.90;99.90;;;;;;4887524;29;20193;-67
2024/01/14 07:14:01;;;;;;;21.33;14.10;;;5.90;99.90;;;;;;4898807;29;20435;-67
2024/01/14 07:16:26;;;;;;;23.57;13.80;;;5.90;99.90;;;;;;4899096;29;20437;-66
2024/01/14 07:18:52;;;;;;;20.43;13.20;;;5.90;99.90;;;;;;4899132;29;20172;-66
2024/01/14 07:21:23;;;;;;;23.40;14.93;;;5.90;99.90;;;;;;4897730;29;20185;-66
2024/01/14 07:23:49;;;;;;;21.15;13.43;;;5.80;99.90;;;;;;4882308;29;20281;-67
2024/01/14 07:26:17;;;;;;;19.35;13.23;;;5.80;99.90;;;;;;4883358;29;20242;-67
2024/01/14 07:28:44;;;;;;;21.10;13.50;;;5.80;99.90;;;;;;4884455;29;20279;-67
2024/01/14 07:31:10;;;;;;;22.15;14.25;;;5.90;99.90;;;;;;4888162;29;20492;-67
2024/01/14 07:33:36;;;;;;;23.80;14.03;;;5.80;99.90;;;;;;4894768;29;20191;-67
2024/01/14 07:36:02;;;;;;;24.50;14.40;;;5.90;99.90;;;;;;4897793;29;20420;-67
2024/01/14 07:38:28;;;;;;;23.20;14.40;;;5.90;99.90;;;;;;4899350;29;20270;-67
2024/01/14 07:40:53;;;;;;;20.43;13.57;;;5.80;99.90;;;;;;4896608;29;20439;-66
2024/01/14 07:43:19;;;;;;;24.97;15.10;;;5.80;99.90;;;;;;4882924;29;20219;-67
2024/01/14 07:45:45;;;;;;;24.57;15.60;;;5.70;99.90;;;;;;4898758;29;20188;-67
2024/01/14 07:48:11;;;;;;;25.45;15.77;;;5.70;99.90;;;;;;4896197;29;20450;-67
2024/01/14 07:50:37;;;;;;;24.60;15.20;;;5.80;99.90;;;;;;4881136;29;20176;-67
2024/01/14 07:53:03;;;;;;;25.73;15.77;;;5.80;99.90;;;;;;4879121;29;20519;-67
2024/01/14 07:55:29;;;;;;;31.43;16.87;;;5.80;99.90;;;;;;4872146;29;20447;-66
2024/01/14 07:57:57;;;;;;;25.87;16.67;;;5.80;99.90;;;;;;4898072;29;20537;-66
2024/01/14 08:00:22;;;;;;;29.60;18.03;;;5.80;99.90;;;;;;4898802;29;20215;-67
2024/01/14 08:02:48;;;;;;;30.07;18.00;;;5.70;99.90;;;;;;4881120;29;20888;-66
2024/01/14 08:05:14;;;;;;;32.17;17.50;;;5.70;99.90;;;;;;4898166;29;20286;-67
2024/01/14 08:07:40;;;;;;;27.65;17.67;;;5.70;99.90;;;;;;4897503;29;20208;-67
2024/01/14 08:10:06;;;;;;;29.20;17.60;;;5.70;99.90;;;;;;4892083;29;20219;-67
2024/01/14 08:12:32;;;;;;;29.42;17.85;;;5.60;99.90;;;;;;4887377;29;20411;-67
2024/01/14 08:14:58;;;;;;;29.40;18.13;;;5.60;99.90;;;;;;4892771;29;20456;-66
2024/01/14 08:17:24;;;;;;;28.50;16.40;;;5.60;99.90;;;;;;4894783;29;20299;-66
2024/01/14 08:19:50;;;;;;;29.13;17.25;;;5.60;99.90;;;;;;4888486;29;20938;-67
2024/01/14 08:22:19;;;;;;;32.50;16.87;;;5.60;99.90;;;;;;4893817;29;20208;-67
2024/01/14 08:24:44;;;;;;;28.70;17.25;;;5.60;99.90;;;;;;4881586;29;20687;-67
2024/01/14 08:27:10;;;;;;;27.03;16.30;;;5.60;99.90;;;;;;4897499;29;20227;-67
2024/01/14 08:29:36;;;;;;;30.53;16.53;;;5.70;99.90;;;;;;4897862;29;20211;-67
2024/01/14 08:32:02;;;;;;;25.93;16.10;;;5.60;99.90;;;;;;4897308;29;20387;-65
2024/01/14 08:34:28;;;;;;;30.58;16.40;;;5.60;99.90;;;;;;4879654;29;20550;-67
2024/01/14 08:36:53;;;;;;;29.10;15.70;;;5.60;99.90;;;;;;4890615;29;20183;-60
2024/01/14 08:39:19;;;;;;;32.40;16.93;;;5.60;99.90;;;;;;4897844;29;20187;-66
2024/01/14 08:41:45;;;;;;;33.27;17.93;;;5.60;99.90;;;;;;4898562;29;20188;-66
2024/01/14 08:44:11;;;;;;;24.93;16.30;;;5.60;99.90;;;;;;4896555;29;20569;-66
2024/01/14 08:46:40;;;;;;;29.43;17.80;;;5.70;99.90;;;;;;4897415;29;20410;-66
2024/01/14 08:49:07;;;;;;;34.10;18.13;;;5.70;99.90;;;;;;4897677;29;20848;-67
2024/01/14 08:51:33;;;;;;;27.88;17.30;;;5.80;99.90;;;;;;4897573;29;20412;-67
2024/01/14 08:54:00;;;;;;;26.43;15.60;;;5.70;99.90;;;;;;4896131;29;20248;-66
2024/01/14 08:56:29;;;;;;;30.37;17.67;;;5.70;99.90;;;;;;4896996;29;20227;-66
2024/01/14 08:58:56;;;;;;;27.00;16.60;;;5.70;99.90;;;;;;4897918;29;20435;-63
2024/01/14 09:01:22;;;;;;;26.20;16.13;;;5.80;99.90;;;;;;4897208;29;20436;-68
2024/01/14 09:03:48;;;;;;;27.50;16.00;;;5.70;99.90;;;;;;4897519;29;20465;-67
2024/01/14 09:06:15;;;;;;;27.77;17.50;;;5.70;99.90;;;;;;4897149;29;20523;-67
2024/01/14 09:08:40;;;;;;;25.67;15.30;;;5.70;99.90;;;;;;4896831;29;20869;-67
2024/01/14 09:11:07;;;;;;;20.63;14.27;;;5.70;99.90;;;;;;4878818;29;20511;-66
2024/01/14 09:13:32;;;;;;;21.30;13.27;;;5.80;99.90;;;;;;4876933;29;20192;-66
2024/01/14 09:15:58;;;;;;;19.70;13.47;;;5.80;99.90;;;;;;4879384;29;20424;-67
2024/01/14 09:18:24;;;;;;;22.57;13.20;;;5.70;99.90;;;;;;4884774;29;20543;-67
2024/01/14 09:20:50;;;;;;;16.93;12.50;;;5.70;99.90;;;;;;4873594;29;20190;-64
2024/01/14 09:23:16;;;;;;;16.93;11.13;;;5.80;99.90;;;;;;4884306;29;21149;-65
2024/01/14 09:25:42;;;;;;;18.80;11.87;;;5.80;99.90;;;;;;4878701;29;20192;-67
2024/01/14 09:28:07;;;;;;;18.10;11.93;;;5.80;99.90;;;;;;4891612;29;20180;-67
2024/01/14 09:30:33;;;;;;;15.60;12.43;;;5.80;99.90;;;;;;4891862;29;20629;-67
2024/01/14 09:33:00;;;;;;;17.50;12.63;;;5.80;99.90;;;;;;4877960;29;20188;-67
2024/01/14 09:35:26;;;;;;;18.70;12.60;;;5.70;99.90;;;;;;4897377;29;20568;-66
2024/01/14 09:37:51;;;;;;;18.83;12.53;;;5.70;99.90;;;;;;4897852;29;20431;-67
2024/01/14 09:40:18;;;;;;;24.33;14.93;;;5.70;99.90;;;;;;4897025;29;20383;-67
2024/01/14 09:42:45;;;;;;;21.63;13.55;;;5.70;99.90;;;;;;4892878;29;20211;-66
2024/01/14 09:45:11;;;;;;;16.67;12.37;;;5.60;99.90;;;;;;4879504;29;20536;-70
2024/01/14 09:47:37;;;;;;;21.92;13.10;;;5.60;99.90;;;;;;4896491;29;20435;-71
2024/01/14 09:50:04;;;;;;;18.20;11.90;;;5.70;99.90;;;;;;4895938;29;20272;-70
2024/01/14 09:52:34;;;;;;;20.88;14.40;;;5.70;99.90;;;;;;4901121;29;20490;-69
2024/01/14 09:55:00;;;;;;;23.40;13.45;;;5.70;99.90;;;;;;4893470;29;20188;-62
2024/01/14 09:57:32;;;;;;;21.40;13.73;;;5.70;99.90;;;;;;4883991;29;20228;-72
2024/01/14 10:00:04;;;;;;;23.90;13.95;;;5.70;99.90;;;;;;4895199;29;20410;-63
2024/01/14 10:02:35;;;;;;;21.90;13.27;;;5.80;99.90;;;;;;4905581;29;20604;-70
2024/01/14 10:05:01;;;;;;;20.42;13.30;;;5.80;99.90;;;;;;4902445;29;20190;-68
2024/01/14 10:07:27;;;;;;;19.50;12.00;;;5.80;99.90;;;;;;4904784;29;20190;-69
2024/01/14 10:09:53;;;;;;;19.90;12.97;;;5.70;99.90;;;;;;4906644;29;20184;-68
2024/01/14 10:12:19;;;;;;;19.77;12.07;;;5.70;99.90;;;;;;4886114;29;20488;-69
2024/01/14 10:14:55;;;;;;;20.13;12.50;;;5.70;99.90;;;;;;4907171;29;20183;-69
2024/01/14 10:17:21;;;;;;;20.63;12.80;;;5.70;99.90;;;;;;4898733;29;20517;-69
2024/01/14 10:19:52;;;;;;;20.30;12.73;;;5.70;99.90;;;;;;4893878;29;20419;-69
2024/01/14 10:22:18;;;;;;;18.65;12.20;;;5.70;99.90;;;;;;4881831;29;20531;-69
2024/01/14 10:24:56;;;;;;;20.50;11.97;;;5.60;99.90;;;;;;4899617;29;20224;-71
2024/01/14 10:27:23;;;;;;;19.77;11.93;;;5.60;99.90;;;;;;4897475;29;20491;-68
2024/01/14 10:29:52;;;;;;;20.33;12.00;;;5.50;99.90;;;;;;4883894;29;20188;-64
2024/01/14 10:32:19;;;;;;;18.63;11.93;;;5.60;99.90;;;;;;4896211;29;20195;-68
2024/01/14 10:34:45;;;;;;;17.05;11.50;;;5.50;99.90;;;;;;4897156;29;20183;-69
2024/01/14 10:37:12;;;;;;;17.73;11.70;;;5.60;99.90;;;;;;4892531;29;20180;-69
2024/01/14 10:39:40;;;;;;;14.60;9.20;;;5.60;99.90;;;;;;4894441;29;20243;-70
2024/01/14 10:42:06;;;;;;;15.07;9.93;;;5.60;99.90;;;;;;4891356;29;20432;-70
2024/01/14 10:44:32;;;;;;;13.93;9.32;;;5.50;99.90;;;;;;4893645;29;20231;-70
2024/01/14 10:47:02;;;;;;;14.80;10.13;;;5.50;99.90;;;;;;4888775;29;20917;-66
2024/01/14 10:49:29;;;;;;;14.85;9.63;;;5.50;99.90;;;;;;4894308;29;20211;-71
2024/01/14 10:51:58;;;;;;;17.40;11.35;;;5.30;99.90;;;;;;4882025;29;20531;-71
2024/01/14 10:54:34;;;;;;;15.18;9.75;;;5.30;99.90;;;;;;4897939;29;20990;-70
2024/01/14 10:57:36;;;;;;;14.35;10.50;;;5.30;99.90;;;;;;4880576;29;21820;-62
2024/01/14 11:00:14;;;;;;;16.75;10.32;;;5.30;99.90;;;;;;4887904;29;20242;-69
2024/01/14 11:02:40;;;;;;;14.88;10.63;;;5.30;99.90;;;;;;4893679;29;20631;-71
2024/01/14 11:05:07;;;;;;;16.10;10.50;;;5.30;99.90;;;;;;4894269;29;20274;-71
2024/01/14 11:07:34;;;;;;;14.02;10.75;;;5.30;99.90;;;;;;4899031;29;20510;-70
2024/01/14 11:10:02;;;;;;;15.48;10.27;;;5.20;99.90;;;;;;4899048;29;20191;-70
2024/01/14 11:12:38;;;;;;;15.40;10.77;;;5.20;99.90;;;;;;4889822;29;20191;-69
2024/01/14 11:15:14;;;;;;;16.75;10.50;;;5.30;99.90;;;;;;4889361;29;20191;-62
2024/01/14 11:18:09;;;;;;;15.77;10.50;;;5.30;99.90;;;;;;4896751;29;20271;-68
2024/01/14 11:20:38;;;;;;;16.20;10.88;;;5.20;99.90;;;;;;4896877;29;20205;-70
2024/01/14 11:23:05;;;;;;;15.10;10.02;;;5.20;99.90;;;;;;4903150;29;20207;-62
2024/01/14 11:25:35;;;;;;;16.75;10.02;;;5.20;99.90;;;;;;4903023;29;20443;-68
2024/01/14 11:28:05;;;;;;;14.30;9.88;;;5.30;99.90;;;;;;4886674;29;20211;-68
2024/01/14 11:30:55;;;;;;;15.93;10.52;;;5.20;99.90;;;;;;4892528;29;20189;-69
2024/01/14 11:33:27;;;;;;;12.60;8.82;;;5.20;99.90;;;;;;4885363;29;20202;-69
2024/01/14 11:35:53;;;;;;;11.48;8.18;;;5.20;99.90;;;;;;4893770;29;20191;-67
2024/01/14 11:38:54;;;;;;;11.00;8.47;;;5.30;99.90;;;;;;4884306;29;20285;-66
2024/01/14 11:41:35;;;;;;;374.65;197.20;;;5.20;99.90;;;;;;4886334;29;20191;-66
2024/01/14 11:44:05;;;;;;;30.92;19.08;;;5.30;99.90;;;;;;4890463;29;20219;-71
2024/01/14 11:46:42;;;;;;;10.27;8.57;;;5.40;99.90;;;;;;4882899;29;20203;-67
2024/01/14 11:49:12;;;;;;;10.13;7.75;;;5.40;99.90;;;;;;4862006;29;20228;-69
2024/01/14 11:51:43;;;;;;;8.48;6.80;;;5.40;99.90;;;;;;4891049;29;20243;-71
2024/01/14 11:54:12;;;;;;;7.32;6.32;;;5.40;99.90;;;;;;4885937;29;20191;-68
2024/01/14 11:56:39;;;;;;;7.78;6.70;;;5.50;99.90;;;;;;4887287;29;20249;-70
2024/01/14 11:59:08;;;;;;;11.32;7.63;;;5.30;99.90;;;;;;4891816;29;20548;-64
2024/01/14 12:01:35;;;;;;;7.75;6.38;;;5.30;99.90;;;;;;4887030;29;20339;-69
2024/01/14 12:04:02;;;;;;;7.93;6.05;;;5.30;99.90;;;;;;4891872;29;20207;-70
2024/01/14 12:06:49;;;;;;;7.95;6.10;;;5.40;99.90;;;;;;4885103;29;20192;-68
2024/01/14 12:09:17;;;;;;;7.30;6.10;;;5.40;99.90;;;;;;4866073;29;20201;-68
2024/01/14 12:11:43;;;;;;;9.77;6.53;;;5.40;99.90;;;;;;4889955;29;21038;-69
2024/01/14 12:14:10;;;;;;;7.32;5.35;;;5.30;99.90;;;;;;4888510;29;20197;-70
2024/01/14 12:16:38;;;;;;;9.00;6.63;;;5.30;99.90;;;;;;4883930;29;20247;-69
2024/01/14 12:19:20;;;;;;;6.53;5.78;;;5.30;99.90;;;;;;4873812;29;20195;-63
2024/01/14 12:21:46;;;;;;;8.55;6.85;;;5.30;99.90;;;;;;4864589;29;20598;-68
2024/01/14 12:24:12;;;;;;;9.53;6.50;;;5.30;99.90;;;;;;4887268;29;20220;-68
2024/01/14 12:26:38;;;;;;;12.55;8.57;;;5.30;99.90;;;;;;4854600;29;20429;-70
2024/01/14 12:29:04;;;;;;;9.73;7.10;;;5.20;99.90;;;;;;4893439;29;20274;-62
2024/01/14 12:31:34;;;;;;;7.63;6.70;;;5.30;99.90;;;;;;4894536;29;20230;-67
2024/01/14 12:34:08;;;;;;;11.32;8.13;;;5.30;99.90;;;;;;4884754;29;20504;-72
2024/01/14 12:36:37;;;;;;;12.57;8.35;;;5.30;99.90;;;;;;4894246;29;20183;-70